Time;durP1;ratioP1;P1;durP2;ratioP2;P2;SDS_P1;SDS_P2;PMS_P1;PMS_P2;Temp;Humidity;BMP_temperature;BMP_pressure;BME280_temperature;BME280_humidity;BME280_pressure;Samples;Min_cycle;Max_cycle;Signal;HPM_P1;HPM_P2
2020/12/27 00:00:23;;;;;;;16.33;9.60;;;;;;;0.49;99.29;100342.16;641263;221;23689;-73
2020/12/27 00:02:51;;;;;;;16.60;11.00;;;;;;;0.92;97.73;100329.24;648556;217;32590;-74
2020/12/27 00:05:19;;;;;;;16.00;10.60;;;;;;;0.81;98.12;100323.40;648968;218;23644;-74
2020/12/27 00:07:47;;;;;;;10.97;7.50;;;;;;;0.55;98.53;100310.67;640000;221;24820;-74
2020/12/27 00:10:15;;;;;;;17.37;10.53;;;;;;;0.67;98.18;100303.28;635182;222;33035;-73
2020/12/27 00:12:43;;;;;;;14.83;9.90;;;;;;;0.40;98.91;100294.84;645339;218;25867;-73
2020/12/27 00:15:11;;;;;;;16.40;10.78;;;;;;;0.71;98.46;100291.54;641994;220;32495;-74
2020/12/27 00:17:38;;;;;;;14.60;9.60;;;;;;;0.63;98.19;100279.59;643546;221;23693;-74
2020/12/27 00:20:06;;;;;;;18.92;11.08;;;;;;;0.78;97.61;100263.42;648476;217;32879;-74
2020/12/27 00:22:34;;;;;;;13.10;8.77;;;;;;;0.63;97.76;100264.69;643286;221;23665;-74
2020/12/27 00:25:02;;;;;;;15.48;10.82;;;;;;;0.66;98.34;100254.28;634602;221;33020;-74
2020/12/27 00:27:30;;;;;;;14.27;9.67;;;;;;;0.63;98.64;100255.28;647799;221;23663;-74
2020/12/27 00:29:58;;;;;;;16.02;10.10;;;;;;;1.03;97.51;100246.28;638397;221;32762;-74
2020/12/27 00:32:28;;;;;;;17.83;9.90;;;;;;;0.52;98.16;100237.09;642843;221;23713;-72
2020/12/27 00:34:56;;;;;;;15.93;10.60;;;;;;;0.96;95.82;100228.31;631629;221;32782;-74
2020/12/27 00:37:25;;;;;;;13.30;10.27;;;;;;;0.51;97.19;100214.53;643103;221;23676;-74
2020/12/27 00:39:54;;;;;;;16.87;10.30;;;;;;;0.75;97.12;100207.28;635727;222;32792;-74
2020/12/27 00:42:21;;;;;;;13.73;9.07;;;;;;;0.33;97.85;100203.17;639953;221;23669;-75
2020/12/27 00:44:49;;;;;;;14.50;10.40;;;;;;;0.35;98.25;100194.51;642265;220;32846;-74
2020/12/27 00:47:17;;;;;;;14.80;9.43;;;;;;;0.25;98.74;100203.11;640186;221;25803;-74
2020/12/27 00:49:45;;;;;;;16.17;9.40;;;;;;;0.34;98.69;100195.42;643209;217;32936;-74
2020/12/27 00:52:13;;;;;;;14.20;9.45;;;;;;;0.67;97.36;100181.72;632031;222;33051;-74
2020/12/27 00:54:41;;;;;;;12.73;8.67;;;;;;;0.37;98.13;100183.73;651964;218;23646;-75
2020/12/27 00:57:09;;;;;;;13.48;9.70;;;;;;;0.64;97.24;100175.04;635519;221;32814;-74
2020/12/27 00:59:37;;;;;;;14.50;9.23;;;;;;;0.68;97.09;100166.73;634851;221;32722;-74
2020/12/27 01:02:05;;;;;;;12.93;8.40;;;;;;;0.48;98.03;100160.16;640050;221;24957;-74
2020/12/27 01:04:32;;;;;;;15.13;9.78;;;;;;;0.47;97.50;100160.61;631783;222;33037;-74
2020/12/27 01:07:00;;;;;;;16.83;8.80;;;;;;;0.52;97.48;100152.22;638515;222;23701;-74
2020/12/27 01:09:28;;;;;;;14.63;9.70;;;;;;;0.86;96.22;100137.59;638090;222;32761;-74
2020/12/27 01:11:59;;;;;;;13.83;8.80;;;;;;;0.45;97.03;100129.17;645880;221;23694;-74
2020/12/27 01:14:27;;;;;;;13.13;9.38;;;;;;;0.70;96.44;100120.95;641862;221;32469;-75
2020/12/27 01:16:55;;;;;;;15.23;8.63;;;;;;;0.26;97.79;100108.03;638145;222;23673;-74
2020/12/27 01:19:23;;;;;;;13.65;9.25;;;;;;;0.72;96.92;100096.59;636369;222;32938;-74
2020/12/27 01:21:53;;;;;;;14.70;9.43;;;;;;;0.38;97.70;100089.47;646864;222;23679;-74
2020/12/27 01:24:19;;;;;;;15.00;7.57;;;;;;;0.47;97.01;100071.07;642007;220;25026;-74
2020/12/27 01:26:47;;;;;;;11.00;8.43;;;;;;;0.72;96.12;100064.59;633070;221;32742;-74
2020/12/27 01:29:15;;;;;;;11.40;7.60;;;;;;;0.35;96.79;100064.52;638138;221;24065;-74
2020/12/27 01:31:43;;;;;;;14.20;8.03;;;;;;;0.55;97.23;100064.23;638187;221;32973;-74
2020/12/27 01:34:11;;;;;;;12.47;8.70;;;;;;;0.71;95.89;100061.22;649669;217;35119;-73
2020/12/27 01:36:40;;;;;;;12.63;8.20;;;;;;;0.73;95.69;100049.61;636309;221;32707;-74
2020/12/27 01:39:07;;;;;;;9.47;7.30;;;;;;;0.44;96.28;100039.27;643734;220;25912;-73
2020/12/27 01:41:34;;;;;;;12.85;8.70;;;;;;;0.61;96.18;100032.38;633131;222;43747;-74
2020/12/27 01:44:03;;;;;;;10.53;7.50;;;;;;;0.45;96.54;100024.30;642821;221;23706;-72
2020/12/27 01:46:32;;;;;;;10.03;6.70;;;;;;;0.53;96.64;100020.01;636180;221;24845;-73
2020/12/27 01:49:00;;;;;;;11.48;8.18;;;;;;;0.65;95.27;99991.63;639887;221;32707;-74
2020/12/27 01:51:28;;;;;;;9.67;6.97;;;;;;;0.43;96.35;99983.09;652912;217;23645;-74
2020/12/27 01:53:55;;;;;;;13.80;7.40;;;;;;;0.67;95.04;99968.05;630313;221;32808;-74
2020/12/27 01:56:27;;;;;;;10.60;7.40;;;;;;;0.62;94.86;99955.99;634661;221;32789;-74
2020/12/27 01:58:56;;;;;;;12.23;7.53;;;;;;;0.48;95.91;99952.48;642766;221;23706;-74
2020/12/27 02:01:24;;;;;;;11.95;7.33;;;;;;;0.35;96.30;99940.03;653023;217;32818;-74
2020/12/27 02:03:52;;;;;;;12.23;6.87;;;;;;;0.39;95.78;99933.00;641926;222;23587;-74
2020/12/27 02:06:21;;;;;;;12.18;7.10;;;;;;;0.58;95.89;99936.98;641247;217;32546;-74
2020/12/27 02:08:50;;;;;;;10.03;6.43;;;;;;;0.37;96.01;99930.53;648542;217;23629;-74
2020/12/27 02:11:19;;;;;;;10.20;6.67;;;;;;;0.70;95.89;99921.81;645838;217;32594;-74
2020/12/27 02:13:49;;;;;;;10.27;6.20;;;;;;;0.48;95.76;99920.52;653881;217;23701;-74
2020/12/27 02:16:18;;;;;;;9.78;6.45;;;;;;;0.50;94.99;99908.45;648366;217;32793;-74
2020/12/27 02:18:46;;;;;;;11.20;6.80;;;;;;;0.51;94.63;99901.14;648259;217;32715;-73
2020/12/27 02:21:14;;;;;;;10.32;6.70;;;;;;;0.69;94.67;99895.39;643245;217;32893;-74
2020/12/27 02:23:42;;;;;;;8.27;5.80;;;;;;;0.49;95.21;99899.13;658012;217;23635;-74
2020/12/27 02:26:10;;;;;;;9.35;6.78;;;;;;;0.63;95.21;99900.06;646017;217;32508;-74
2020/12/27 02:28:38;;;;;;;8.60;5.47;;;;;;;0.70;94.45;99890.64;660051;217;23671;-74
2020/12/27 02:31:05;;;;;;;8.80;6.53;;;;;;;0.67;94.48;99892.56;643775;217;32574;-74
2020/12/27 02:33:33;;;;;;;11.57;6.47;;;;;;;0.71;94.20;99886.37;657199;217;23645;-74
2020/12/27 02:36:01;;;;;;;9.15;6.53;;;;;;;1.01;93.19;99870.92;655861;216;32586;-74
2020/12/27 02:38:29;;;;;;;10.38;6.70;;;;;;;1.16;92.92;99877.20;643954;217;32505;-74
2020/12/27 02:40:57;;;;;;;10.90;6.00;;;;;;;0.61;94.03;99880.15;654861;217;25814;-74
2020/12/27 02:43:25;;;;;;;9.88;6.28;;;;;;;0.77;93.43;99867.62;648472;217;32834;-74
2020/12/27 02:45:53;;;;;;;7.73;5.80;;;;;;;0.50;94.22;99864.96;654573;217;25844;-74
2020/12/27 02:48:21;;;;;;;11.17;6.57;;;;;;;0.61;93.98;99864.34;657220;217;24768;-74
2020/12/27 02:50:48;;;;;;;9.33;5.47;;;;;;;0.60;95.19;99869.09;654856;217;24762;-74
2020/12/27 02:53:16;;;;;;;8.90;6.67;;;;;;;0.88;93.72;99861.88;653366;217;32540;-74
2020/12/27 02:55:44;;;;;;;9.10;6.30;;;;;;;0.69;94.28;99861.31;654896;217;24043;-74
2020/12/27 02:58:12;;;;;;;13.50;6.67;;;;;;;0.88;93.47;99851.63;651333;217;32502;-74
2020/12/27 03:00:40;;;;;;;9.03;6.00;;;;;;;0.39;95.62;99867.32;652698;217;23692;-74
2020/12/27 03:03:09;;;;;;;9.63;6.62;;;;;;;0.38;95.95;99864.85;650037;217;32808;-74
2020/12/27 03:05:36;;;;;;;12.85;7.70;;;;;;;0.57;95.05;99851.38;651605;217;32619;-74
2020/12/27 03:08:04;;;;;;;11.23;5.53;;;;;;;0.49;95.37;99850.53;653287;217;23727;-74
2020/12/27 03:10:32;;;;;;;10.43;7.30;;;;;;;0.80;94.47;99830.33;650580;217;32558;-74
2020/12/27 03:13:00;;;;;;;7.00;6.10;;;;;;;0.81;94.25;99829.87;656723;217;23663;-74
2020/12/27 03:15:28;;;;;;;10.08;7.22;;;;;;;1.21;92.91;99810.78;645222;217;32532;-75
2020/12/27 03:17:57;;;;;;;9.10;5.73;;;;;;;0.74;93.74;99810.70;658768;217;26821;-74
2020/12/27 03:20:23;;;;;;;8.43;6.12;;;;;;;0.65;94.58;99800.55;649025;217;32503;-74
2020/12/27 03:22:51;;;;;;;10.63;6.73;;;;;;;0.58;94.96;99793.71;656508;217;23677;-74
2020/12/27 03:25:19;;;;;;;10.18;6.65;;;;;;;0.78;93.69;99777.14;651307;217;32892;-74
2020/12/27 03:27:47;;;;;;;9.63;6.10;;;;;;;0.88;93.85;99759.48;661419;217;23632;-74
2020/12/27 03:30:15;;;;;;;7.33;5.07;;;;;;;0.64;94.61;99755.87;656021;217;24774;-74
2020/12/27 03:32:43;;;;;;;8.88;6.40;;;;;;;0.82;94.23;99749.61;647927;217;43519;-74
2020/12/27 03:35:11;;;;;;;8.65;6.50;;;;;;;0.77;93.75;99740.13;643729;217;32555;-74
2020/12/27 03:37:39;;;;;;;12.05;6.37;;;;;;;0.78;93.55;99735.38;646969;217;32629;-74
2020/12/27 03:40:07;;;;;;;12.40;5.67;;;;;;;0.73;93.40;99723.33;650214;217;23662;-74
2020/12/27 03:42:35;;;;;;;8.88;6.20;;;;;;;0.82;93.72;99711.22;635439;221;32709;-74
2020/12/27 03:45:03;;;;;;;7.40;6.40;;;;;;;0.67;93.31;99708.34;637774;222;23680;-74
2020/12/27 03:47:31;;;;;;;10.40;6.08;;;;;;;0.94;93.14;99698.12;638623;219;32748;-74
2020/12/27 03:49:59;;;;;;;12.03;6.10;;;;;;;0.68;93.64;99691.61;648432;220;24913;-72
2020/12/27 03:52:27;;;;;;;9.20;6.30;;;;;;;0.83;93.15;99684.70;639081;221;33006;-75
2020/12/27 03:54:55;;;;;;;11.95;7.00;;;;;;;1.00;92.40;99677.27;632554;221;32695;-74
2020/12/27 03:57:22;;;;;;;10.60;6.80;;;;;;;0.80;92.45;99671.66;639654;222;23689;-72
2020/12/27 03:59:50;;;;;;;7.67;5.50;;;;;;;0.59;94.07;99658.94;641691;221;30191;-72
2020/12/27 04:02:18;;;;;;;8.30;5.33;;;;;;;0.63;93.75;99653.16;647758;220;27940;-74
2020/12/27 04:04:46;;;;;;;10.85;6.47;;;;;;;0.68;93.27;99640.44;623869;226;32836;-74
2020/12/27 04:07:14;;;;;;;10.80;5.90;;;;;;;0.73;93.56;99642.72;636531;221;23693;-72
2020/12/27 04:09:42;;;;;;;10.60;6.50;;;;;;;0.73;93.25;99637.61;639562;221;24795;-73
2020/12/27 04:12:13;;;;;;;13.72;6.47;;;;;;;0.87;92.87;99623.02;638407;221;32742;-75
2020/12/27 04:14:39;;;;;;;10.07;5.60;;;;;;;0.77;92.86;99628.80;639212;222;23684;-74
2020/12/27 04:17:06;;;;;;;10.10;6.22;;;;;;;1.11;91.82;99622.33;636128;221;32768;-75
2020/12/27 04:19:34;;;;;;;7.43;5.70;;;;;;;0.89;91.77;99612.21;645427;221;23670;-75
2020/12/27 04:22:02;;;;;;;8.20;5.33;;;;;;;0.98;92.02;99610.78;649876;220;24851;-73
2020/12/27 04:24:30;;;;;;;8.48;5.75;;;;;;;1.16;91.90;99608.32;631874;222;32716;-75
2020/12/27 04:26:58;;;;;;;10.23;6.90;;;;;;;1.34;90.48;99599.06;648596;217;32578;-75
2020/12/27 04:29:26;;;;;;;9.20;5.70;;;;;;;0.77;92.30;99597.64;656153;219;23649;-74
2020/12/27 04:31:54;;;;;;;9.10;6.28;;;;;;;1.20;90.73;99587.16;647913;219;32517;-75
2020/12/27 04:34:21;;;;;;;6.77;5.97;;;;;;;0.96;91.57;99582.36;650931;217;23731;-72
2020/12/27 04:36:49;;;;;;;7.67;5.57;;;;;;;0.93;92.00;99576.98;653475;217;25272;-74
2020/12/27 04:39:17;;;;;;;10.32;5.60;;;;;;;0.89;91.99;99573.00;644920;217;32506;-74
2020/12/27 04:41:45;;;;;;;9.37;5.90;;;;;;;0.50;93.70;99569.97;651269;217;25849;-74
2020/12/27 04:44:13;;;;;;;6.97;4.93;;;;;;;0.64;93.28;99563.52;656632;217;24760;-72
2020/12/27 04:46:41;;;;;;;7.90;5.50;;;;;;;0.62;92.42;99558.96;651630;217;32621;-74
2020/12/27 04:49:09;;;;;;;11.33;6.35;;;;;;;0.90;92.97;99554.16;646269;217;32503;-72
2020/12/27 04:51:37;;;;;;;11.20;5.90;;;;;;;0.88;92.39;99541.92;648750;217;23626;-75
2020/12/27 04:54:05;;;;;;;9.08;6.05;;;;;;;0.86;92.69;99532.25;651090;217;32531;-75
2020/12/27 04:56:33;;;;;;;8.50;5.80;;;;;;;0.76;92.15;99524.81;655006;217;23651;-74
2020/12/27 04:59:01;;;;;;;6.78;5.05;;;;;;;1.01;91.85;99514.60;653221;216;32501;-74
2020/12/27 05:01:29;;;;;;;6.57;5.50;;;;;;;0.92;92.22;99505.42;657365;217;23645;-72
2020/12/27 05:03:57;;;;;;;8.85;5.37;;;;;;;1.12;90.97;99490.81;633656;221;32722;-74
2020/12/27 05:06:25;;;;;;;7.87;5.40;;;;;;;1.12;90.62;99463.47;645712;217;32483;-74
2020/12/27 05:08:52;;;;;;;7.97;4.40;;;;;;;0.68;92.33;99459.23;660483;217;23693;-74
2020/12/27 05:11:20;;;;;;;8.40;5.62;;;;;;;0.87;91.64;99449.43;636025;221;33641;-74
2020/12/27 05:13:49;;;;;;;7.40;5.67;;;;;;;0.76;91.64;99449.32;648754;218;23648;-74
2020/12/27 05:16:17;;;;;;;7.35;5.15;;;;;;;1.00;91.51;99440.01;638957;219;32573;-74
2020/12/27 05:18:44;;;;;;;9.63;5.27;;;;;;;0.87;92.09;99423.38;645510;221;23641;-72
2020/12/27 05:21:12;;;;;;;8.83;5.40;;;;;;;0.85;91.58;99409.05;632502;221;32655;-74
2020/12/27 05:23:40;;;;;;;6.90;4.17;;;;;;;0.69;91.74;99390.50;646277;220;23690;-71
2020/12/27 05:26:08;;;;;;;6.25;4.37;;;;;;;0.70;92.10;99386.56;621408;225;33584;-74
2020/12/27 05:28:36;;;;;;;5.78;4.87;;;;;;;0.89;92.08;99375.92;634537;221;32714;-74
2020/12/27 05:31:10;;;;;;;5.93;4.30;;;;;;;0.72;92.46;99377.53;640077;221;23680;-71
2020/12/27 05:33:39;;;;;;;8.13;4.80;;;;;;;0.91;91.86;99365.11;645133;217;32650;-74
2020/12/27 05:36:07;;;;;;;6.95;4.10;;;;;;;0.85;91.32;99361.70;649339;217;32548;-73
2020/12/27 05:38:35;;;;;;;5.73;3.83;;;;;;;0.70;91.51;99357.14;652401;217;23931;-72
2020/12/27 05:41:03;;;;;;;4.92;4.35;;;;;;;0.80;91.43;99354.32;653730;217;32549;-73
2020/12/27 05:43:31;;;;;;;5.83;3.90;;;;;;;0.78;91.66;99355.35;660515;217;23641;-73
2020/12/27 05:45:58;;;;;;;4.40;3.73;;;;;;;0.77;91.30;99357.56;655646;217;24741;-73
2020/12/27 05:48:26;;;;;;;6.62;3.90;;;;;;;0.97;90.44;99348.50;647618;217;32572;-74
2020/12/27 05:50:54;;;;;;;3.87;3.53;;;;;;;0.82;90.46;99340.14;656622;217;23648;-72
2020/12/27 05:53:22;;;;;;;7.28;4.22;;;;;;;0.96;89.91;99332.33;642031;217;32596;-75
2020/12/27 05:55:50;;;;;;;4.30;3.10;;;;;;;0.92;90.45;99330.09;655090;217;23666;-72
2020/12/27 05:58:19;;;;;;;6.65;3.40;;;;;;;0.99;89.63;99324.92;648910;217;32491;-72
2020/12/27 06:00:50;;;;;;;6.57;4.13;;;;;;;1.04;89.65;99321.56;639983;222;25897;-73
2020/12/27 06:03:20;;;;;;;4.22;2.85;;;;;;;1.06;89.56;99315.41;642079;222;32626;-72
2020/12/27 06:06:02;;;;;;;3.20;2.90;;;;;;;0.88;89.25;99304.72;626035;226;24022;-72
2020/12/27 06:08:59;;;;;;;4.00;2.90;;;;;;;1.14;88.13;99295.22;643570;218;32531;-74
2020/12/27 06:11:35;;;;;;;3.57;2.90;;;;;;;1.22;87.91;99288.73;649753;219;23646;-73
2020/12/27 06:14:19;;;;;;;8.10;3.00;;;;;;;0.99;88.34;99280.94;655582;217;24743;-72
2020/12/27 06:16:52;;;;;;;12.90;3.27;;;;;;;1.02;87.85;99275.59;651577;217;24747;-74
2020/12/27 06:19:22;;;;;;;5.00;2.92;;;;;;;1.14;87.03;99277.30;635269;221;32707;-75
2020/12/27 06:21:50;;;;;;;4.30;2.57;;;;;;;1.03;87.91;99264.89;637930;221;23665;-74
2020/12/27 06:24:18;;;;;;;2.60;2.40;;;;;;;1.00;88.04;99263.38;658920;217;24992;-73
2020/12/27 06:26:46;;;;;;;3.85;2.40;;;;;;;1.02;87.25;99251.28;638684;221;32657;-72
2020/12/27 06:29:14;;;;;;;3.80;2.50;;;;;;;1.11;87.66;99249.33;642912;221;23679;-73
2020/12/27 06:31:42;;;;;;;4.00;2.20;;;;;;;1.01;87.83;99238.13;649760;218;24762;-72
2020/12/27 06:34:10;;;;;;;6.70;2.53;;;;;;;1.08;87.46;99238.50;650635;218;24777;-72
2020/12/27 06:36:37;;;;;;;2.27;1.90;;;;;;;1.08;87.19;99232.91;638459;221;32771;-72
2020/12/27 06:39:24;;;;;;;4.13;2.13;;;;;;;1.10;87.23;99213.59;646667;220;25800;-72
2020/12/27 06:42:05;;;;;;;2.20;1.93;;;;;;;1.15;87.04;99216.20;640795;221;24789;-72
2020/12/27 06:44:40;;;;;;;2.60;2.03;;;;;;;1.16;87.25;99211.44;644341;221;24788;-72
2020/12/27 06:47:08;;;;;;;4.00;1.80;;;;;;;1.12;86.87;99202.31;644776;220;24911;-74
2020/12/27 06:49:36;;;;;;;3.83;2.33;;;;;;;1.10;86.67;99190.56;637953;222;24812;-73
2020/12/27 06:52:19;;;;;;;2.30;1.90;;;;;;;1.17;86.50;99204.09;643503;221;24833;-73
2020/12/27 06:54:47;;;;;;;2.43;2.07;;;;;;;1.17;86.42;99201.54;637655;221;24826;-74
2020/12/27 06:57:40;;;;;;;1.87;1.77;;;;;;;1.18;86.54;99190.83;660598;217;25083;-73
2020/12/27 07:00:19;;;;;;;3.00;2.00;;;;;;;1.21;86.07;99190.61;655143;217;24798;-74
2020/12/27 07:02:47;;;;;;;5.60;2.40;;;;;;;1.44;85.82;99186.37;652571;217;32507;-75
2020/12/27 07:05:29;;;;;;;5.20;2.20;;;;;;;1.24;86.06;99171.63;655977;217;23666;-73
2020/12/27 07:07:57;;;;;;;2.47;1.90;;;;;;;1.17;86.27;99165.70;658464;217;25930;-73
2020/12/27 07:10:25;;;;;;;3.45;2.02;;;;;;;1.27;86.08;99172.69;651682;217;32532;-73
2020/12/27 07:12:53;;;;;;;3.43;2.10;;;;;;;1.28;86.17;99164.92;651367;217;23658;-73
2020/12/27 07:15:21;;;;;;;4.53;2.30;;;;;;;1.26;85.59;99163.37;650056;217;32537;-73
2020/12/27 07:17:49;;;;;;;4.03;2.50;;;;;;;1.25;86.18;99150.22;659894;217;24803;-73
2020/12/27 07:20:17;;;;;;;3.92;2.30;;;;;;;1.32;85.76;99145.02;653446;215;32554;-74
2020/12/27 07:22:45;;;;;;;2.60;2.00;;;;;;;1.26;86.18;99133.92;658458;216;23669;-73
2020/12/27 07:25:13;;;;;;;4.37;1.80;;;;;;;1.31;85.84;99116.49;653586;217;32642;-73
2020/12/27 07:27:41;;;;;;;4.00;2.17;;;;;;;1.35;85.73;99105.08;662201;217;23679;-73
2020/12/27 07:30:09;;;;;;;5.72;2.10;;;;;;;1.30;85.88;99102.06;651385;217;32851;-73
2020/12/27 07:32:41;;;;;;;3.17;2.03;;;;;;;1.31;86.17;99096.00;652869;217;23655;-73
2020/12/27 07:35:09;;;;;;;2.47;2.10;;;;;;;1.33;86.05;99092.86;645161;217;32597;-73
2020/12/27 07:37:37;;;;;;;4.17;2.40;;;;;;;1.30;85.38;99081.11;658218;217;23662;-73
2020/12/27 07:40:05;;;;;;;4.33;2.00;;;;;;;1.34;85.79;99070.97;658161;217;24751;-73
2020/12/27 07:42:33;;;;;;;4.23;2.17;;;;;;;1.24;85.66;99067.92;656474;217;24783;-73
2020/12/27 07:45:01;;;;;;;2.67;1.80;;;;;;;1.37;85.34;99075.86;653715;217;32518;-72
2020/12/27 07:47:29;;;;;;;2.83;1.83;;;;;;;1.46;85.02;99079.02;650137;217;23679;-72
2020/12/27 07:50:04;;;;;;;4.13;1.77;;;;;;;1.36;85.15;99077.26;654544;217;24887;-72
2020/12/27 07:52:42;;;;;;;4.55;2.00;;;;;;;1.39;85.07;99079.12;647455;217;32512;-73
2020/12/27 07:55:10;;;;;;;2.50;2.00;;;;;;;1.45;84.98;99072.27;649139;217;24774;-73
2020/12/27 07:57:38;;;;;;;2.10;1.60;;;;;;;1.42;85.18;99065.29;653354;217;24747;-72
2020/12/27 08:00:06;;;;;;;3.00;2.00;;;;;;;1.40;84.23;99044.88;651092;217;32512;-73
2020/12/27 08:02:34;;;;;;;2.83;2.13;;;;;;;1.33;84.74;99058.28;660389;217;25188;-73
2020/12/27 08:05:02;;;;;;;2.30;1.90;;;;;;;1.53;84.32;99046.05;652098;217;32525;-73
2020/12/27 08:07:30;;;;;;;2.30;1.83;;;;;;;1.30;84.59;99027.79;654320;217;23648;-72
2020/12/27 08:09:58;;;;;;;1.77;1.60;;;;;;;1.38;84.85;99027.55;655801;217;26920;-73
2020/12/27 08:12:26;;;;;;;2.53;2.00;;;;;;;1.46;85.56;99026.98;648783;217;24766;-73
2020/12/27 08:14:54;;;;;;;2.70;1.63;;;;;;;1.38;84.17;99014.73;653750;217;24857;-72
2020/12/27 08:17:21;;;;;;;3.17;1.90;;;;;;;1.61;83.88;98989.12;656257;217;32501;-73
2020/12/27 08:19:49;;;;;;;1.97;1.87;;;;;;;1.49;84.26;98965.25;654039;217;23666;-73
2020/12/27 08:22:17;;;;;;;4.10;1.87;;;;;;;1.49;84.79;98972.94;647716;217;32530;-73
2020/12/27 08:24:45;;;;;;;2.90;2.13;;;;;;;1.44;84.21;98964.80;657713;217;24094;-73
2020/12/27 08:27:13;;;;;;;2.50;2.30;;;;;;;1.47;84.19;98977.38;652371;215;24769;-73
2020/12/27 08:29:42;;;;;;;3.77;1.70;;;;;;;1.41;84.51;98976.58;654516;218;24768;-73
2020/12/27 08:32:10;;;;;;;2.67;1.90;;;;;;;1.43;83.95;98964.45;647823;216;32536;-73
2020/12/27 08:34:39;;;;;;;3.87;1.73;;;;;;;1.48;84.22;98961.06;659391;217;23648;-74
2020/12/27 08:37:08;;;;;;;2.60;1.90;;;;;;;1.61;83.81;98939.16;652555;217;32509;-73
2020/12/27 08:39:37;;;;;;;4.40;1.87;;;;;;;1.60;83.60;98915.28;656421;217;23637;-72
2020/12/27 08:42:05;;;;;;;4.60;1.87;;;;;;;1.59;84.09;98918.78;650471;217;27984;-73
2020/12/27 08:44:42;;;;;;;1.80;1.70;;;;;;;1.52;84.04;98905.27;649658;217;25021;-73
2020/12/27 08:47:14;;;;;;;3.10;1.90;;;;;;;1.61;83.84;98902.81;647938;217;43505;-73
2020/12/27 08:49:46;;;;;;;3.10;2.13;;;;;;;1.65;83.82;98915.72;661400;217;24779;-72
2020/12/27 08:52:15;;;;;;;2.40;2.13;;;;;;;1.52;83.72;98909.93;650185;216;24785;-72
2020/12/27 08:54:43;;;;;;;4.47;1.70;;;;;;;1.56;84.02;98899.81;653783;217;24751;-72
2020/12/27 08:57:11;;;;;;;4.47;2.03;;;;;;;1.60;83.96;98892.22;654946;217;24875;-72
2020/12/27 08:59:39;;;;;;;3.33;1.50;;;;;;;1.66;83.50;98881.48;657126;217;24753;-72
2020/12/27 09:02:10;;;;;;;1.93;1.37;;;;;;;1.65;83.57;98877.29;652253;217;26918;-72
2020/12/27 09:04:38;;;;;;;2.10;1.77;;;;;;;1.71;83.10;98877.29;656509;217;24729;-72
2020/12/27 09:07:06;;;;;;;2.72;1.50;;;;;;;1.77;83.28;98851.16;646468;217;32648;-73
2020/12/27 09:09:33;;;;;;;7.50;1.93;;;;;;;1.78;83.16;98843.81;653346;217;23887;-74
2020/12/27 09:12:02;;;;;;;3.15;1.70;;;;;;;1.99;83.10;98839.53;648671;217;32553;-72
2020/12/27 09:14:31;;;;;;;2.33;1.72;;;;;;;1.91;82.51;98812.87;649678;217;32552;-73
2020/12/27 09:17:01;;;;;;;1.97;1.80;;;;;;;1.94;82.43;98803.18;654775;217;23646;-72
2020/12/27 09:19:29;;;;;;;4.37;1.77;;;;;;;2.00;82.37;98805.73;654543;217;25905;-73
2020/12/27 09:21:57;;;;;;;1.20;1.10;;;;;;;1.90;82.57;98815.91;650915;217;24739;-72
2020/12/27 09:24:25;;;;;;;1.93;1.70;;;;;;;1.95;82.71;98792.45;654716;217;26992;-73
2020/12/27 09:26:53;;;;;;;2.13;1.90;;;;;;;1.99;82.61;98798.51;655632;217;24940;-73
2020/12/27 09:29:21;;;;;;;2.10;1.47;;;;;;;2.04;82.50;98798.94;653447;217;24743;-72
2020/12/27 09:31:49;;;;;;;2.37;1.60;;;;;;;1.96;82.39;98788.48;657546;217;24758;-72
2020/12/27 09:34:23;;;;;;;2.67;1.90;;;;;;;1.94;82.60;98794.67;649352;217;24778;-73
2020/12/27 09:36:51;;;;;;;2.37;1.50;;;;;;;2.05;82.52;98785.17;658467;217;24753;-73
2020/12/27 09:39:19;;;;;;;2.40;1.80;;;;;;;2.20;81.64;98783.09;653774;217;24772;-73
2020/12/27 09:41:47;;;;;;;2.50;1.53;;;;;;;2.15;82.04;98776.73;650070;217;24753;-74
2020/12/27 09:44:15;;;;;;;1.67;1.30;;;;;;;2.25;81.85;98770.71;651366;217;25148;-72
2020/12/27 09:46:43;;;;;;;2.30;1.40;;;;;;;2.23;82.05;98757.18;650408;216;32526;-72
2020/12/27 09:49:18;;;;;;;2.30;1.50;;;;;;;2.35;81.91;98760.00;657748;217;23642;-73
2020/12/27 09:51:46;;;;;;;4.70;1.50;;;;;;;2.50;81.43;98729.67;655850;217;24790;-73
2020/12/27 09:54:14;;;;;;;2.97;1.50;;;;;;;2.21;81.62;98725.73;656593;217;24759;-73
2020/12/27 09:56:43;;;;;;;1.03;1.00;;;;;;;2.30;81.60;98719.83;644142;221;24845;-75
2020/12/27 09:59:11;;;;;;;1.37;1.20;;;;;;;2.54;81.81;98704.59;644947;220;24806;-72
2020/12/27 10:01:39;;;;;;;4.30;1.40;;;;;;;2.55;81.20;98699.80;643694;221;24794;-72
2020/12/27 10:04:07;;;;;;;5.23;1.60;;;;;;;2.62;81.01;98690.61;646124;221;24829;-72
2020/12/27 10:06:35;;;;;;;1.87;1.20;;;;;;;2.74;81.00;98677.19;636316;221;32695;-72
2020/12/27 10:09:02;;;;;;;1.70;1.00;;;;;;;2.70;79.94;98669.42;640494;221;32661;-72
2020/12/27 10:11:30;;;;;;;2.80;1.07;;;;;;;2.66;80.07;98649.61;652748;219;23650;-72
2020/12/27 10:13:58;;;;;;;2.40;1.30;;;;;;;2.77;80.51;98656.38;642571;221;24801;-72
2020/12/27 10:16:26;;;;;;;1.20;1.10;;;;;;;2.74;80.06;98633.55;639694;221;27931;-72
2020/12/27 10:18:54;;;;;;;1.10;1.00;;;;;;;2.77;79.96;98621.25;643501;220;24794;-72
2020/12/27 10:21:22;;;;;;;1.33;1.23;;;;;;;2.80;79.89;98610.71;647692;221;24706;-71
2020/12/27 10:23:51;;;;;;;1.42;1.00;;;;;;;3.04;79.18;98598.74;635784;222;32709;-70
2020/12/27 10:26:18;;;;;;;1.53;1.10;;;;;;;3.13;79.09;98596.64;639753;222;25804;-71
2020/12/27 10:28:46;;;;;;;1.20;1.10;;;;;;;2.95;78.90;98586.72;644269;221;24798;-71
2020/12/27 10:31:14;;;;;;;1.47;1.20;;;;;;;3.09;79.24;98576.02;641186;222;24794;-71
2020/12/27 10:33:42;;;;;;;3.08;1.00;;;;;;;3.25;78.98;98562.63;644773;218;32469;-72
2020/12/27 10:36:10;;;;;;;1.43;1.13;;;;;;;3.16;78.66;98545.47;653261;218;23658;-71
2020/12/27 10:38:38;;;;;;;1.43;1.33;;;;;;;3.28;78.91;98545.64;645835;221;24712;-73
2020/12/27 10:41:07;;;;;;;2.63;1.37;;;;;;;3.32;78.79;98530.27;646613;222;24857;-73
2020/12/27 10:43:35;;;;;;;2.80;1.70;;;;;;;3.22;78.54;98514.08;636500;221;32723;-72
2020/12/27 10:46:03;;;;;;;1.70;1.60;;;;;;;3.20;79.36;98498.80;642171;222;23654;-72
2020/12/27 10:48:31;;;;;;;3.20;1.60;;;;;;;3.30;79.34;98492.83;657558;217;24757;-72
2020/12/27 10:50:58;;;;;;;1.00;0.90;;;;;;;3.12;79.01;98478.65;639997;221;24985;-73
2020/12/27 10:53:26;;;;;;;1.10;1.00;;;;;;;3.15;78.93;98474.03;638767;222;28008;-72
2020/12/27 10:55:54;;;;;;;1.10;1.00;;;;;;;3.24;78.47;98465.97;644976;219;24797;-72
2020/12/27 10:58:22;;;;;;;1.83;1.30;;;;;;;3.33;78.54;98453.53;635619;221;24796;-72
2020/12/27 11:00:50;;;;;;;1.60;1.40;;;;;;;3.45;78.43;98453.67;644568;221;24798;-72
2020/12/27 11:03:18;;;;;;;2.73;1.30;;;;;;;3.51;77.87;98435.58;642411;221;24829;-72
2020/12/27 11:05:46;;;;;;;1.63;1.00;;;;;;;3.63;77.97;98424.63;643026;221;25088;-72
2020/12/27 11:08:14;;;;;;;2.27;1.10;;;;;;;3.59;78.02;98416.40;641600;220;32670;-72
2020/12/27 11:10:43;;;;;;;1.37;1.27;;;;;;;3.57;77.69;98407.55;642227;218;23944;-72
2020/12/27 11:13:11;;;;;;;1.30;1.20;;;;;;;3.64;77.79;98387.20;645742;221;24768;-72
2020/12/27 11:15:39;;;;;;;1.10;1.00;;;;;;;3.61;77.43;98382.84;644178;221;24851;-72
2020/12/27 11:18:07;;;;;;;1.80;1.00;;;;;;;3.56;77.67;98369.95;640536;220;24874;-72
2020/12/27 11:20:35;;;;;;;1.70;0.97;;;;;;;3.59;78.18;98376.56;640706;221;26966;-72
2020/12/27 11:23:03;;;;;;;1.20;1.10;;;;;;;3.67;78.37;98353.99;641672;221;25096;-72
2020/12/27 11:25:31;;;;;;;1.63;1.37;;;;;;;3.70;77.63;98346.79;636433;222;24802;-72
2020/12/27 11:27:59;;;;;;;1.50;0.90;;;;;;;3.66;77.56;98330.05;640035;221;24804;-72
2020/12/27 11:30:27;;;;;;;1.10;1.00;;;;;;;3.63;77.92;98317.95;638712;222;25196;-73
2020/12/27 11:32:55;;;;;;;1.27;0.93;;;;;;;3.64;77.67;98313.14;636572;222;24814;-72
2020/12/27 11:35:22;;;;;;;1.87;1.73;;;;;;;3.85;77.95;98300.79;641061;222;24821;-72
2020/12/27 11:37:52;;;;;;;1.03;1.03;;;;;;;3.61;77.49;98289.03;638169;221;24820;-72
2020/12/27 11:40:19;;;;;;;1.13;1.10;;;;;;;3.79;78.14;98283.38;640913;221;26013;-72
2020/12/27 11:42:48;;;;;;;0.82;0.72;;;;;;;3.93;77.31;98269.97;634438;222;32727;-73